sensor_id;sensor_type;location;lat;lon;timestamp;temperature;humidity
30459;DHT22;74163;50.912;6.918;2024-01-06T00:00:15;7.60;99.90
30459;DHT22;74163;50.912;6.918;2024-01-06T00:00:47;7.60;99.90
30459;DHT22;74163;50.912;6.918;2024-01-06T00:01:19;7.50;99.90
30459;DHT22;74163;50.912;6.918;2024-01-06T00:01:51;7.50;99.90
30459;DHT22;74163;50.912;6.918;2024-01-06T00:02:22;7.50;99.90
30459;DHT22;74163;50.912;6.918;2024-01-06T00:02:54;7.50;99.90
30459;DHT22;74163;50.912;6.918;2024-01-06T00:03:26;7.60;99.90
30459;DHT22;74163;50.912;6.918;2024-01-06T00:03:58;7.50;99.90
30459;DHT22;74163;50.912;6.918;2024-01-06T00:04:32;7.60;99.90
30459;DHT22;74163;50.912;6.918;2024-01-06T00:05:04;7.60;99.90
30459;DHT22;74163;50.912;6.918;2024-01-06T00:05:37;7.60;99.90
30459;DHT22;74163;50.912;6.918;2024-01-06T00:06:11;7.60;99.90
30459;DHT22;74163;50.912;6.918;2024-01-06T00:06:43;7.60;99.90
30459;DHT22;74163;50.912;6.918;2024-01-06T00:07:15;7.60;99.90
30459;DHT22;74163;50.912;6.918;2024-01-06T00:07:47;7.60;99.90
30459;DHT22;74163;50.912;6.918;2024-01-06T00:08:19;7.60;99.90
30459;DHT22;74163;50.912;6.918;2024-01-06T00:08:51;7.60;99.90
30459;DHT22;74163;50.912;6.918;2024-01-06T00:09:23;7.60;99.90
30459;DHT22;74163;50.912;6.918;2024-01-06T00:09:54;7.60;99.90
30459;DHT22;74163;50.912;6.918;2024-01-06T00:10:26;7.60;99.90
30459;DHT22;74163;50.912;6.918;2024-01-06T00:10:58;7.60;99.90
30459;DHT22;74163;50.912;6.918;2024-01-06T00:11:30;7.60;99.90
30459;DHT22;74163;50.912;6.918;2024-01-06T00:12:02;7.60;99.90
30459;DHT22;74163;50.912;6.918;2024-01-06T00:12:34;7.60;99.90
30459;DHT22;74163;50.912;6.918;2024-01-06T00:13:06;7.60;99.90
30459;DHT22;74163;50.912;6.918;2024-01-06T00:13:38;7.60;99.90
30459;DHT22;74163;50.912;6.918;2024-01-06T00:14:11;7.60;99.90
30459;DHT22;74163;50.912;6.918;2024-01-06T00:14:43;7.60;99.90
30459;DHT22;74163;50.912;6.918;2024-01-06T00:15:15;7.50;99.90
30459;DHT22;74163;50.912;6.918;2024-01-06T00:15:47;7.50;99.90
30459;DHT22;74163;50.912;6.918;2024-01-06T00:16:19;7.60;99.90
30459;DHT22;74163;50.912;6.918;2024-01-06T00:16:51;7.50;99.90
30459;DHT22;74163;50.912;6.918;2024-01-06T00:17:23;7.50;99.90
30459;DHT22;74163;50.912;6.918;2024-01-06T00:17:55;7.50;99.90
30459;DHT22;74163;50.912;6.918;2024-01-06T00:18:27;7.50;99.90
30459;DHT22;74163;50.912;6.918;2024-01-06T00:18:59;7.50;99.90
30459;DHT22;74163;50.912;6.918;2024-01-06T00:19:31;7.50;99.90
30459;DHT22;74163;50.912;6.918;2024-01-06T00:20:04;7.50;99.90
30459;DHT22;74163;50.912;6.918;2024-01-06T00:20:36;7.50;99.90
30459;DHT22;74163;50.912;6.918;2024-01-06T00:21:08;7.50;99.90
30459;DHT22;74163;50.912;6.918;2024-01-06T00:21:40;7.50;99.90
30459;DHT22;74163;50.912;6.918;2024-01-06T00:22:12;7.50;99.90
30459;DHT22;74163;50.912;6.918;2024-01-06T00:22:44;7.50;99.90
30459;DHT22;74163;50.912;6.918;2024-01-06T00:23:16;7.60;99.90
30459;DHT22;74163;50.912;6.918;2024-01-06T00:23:47;7.50;99.90
30459;DHT22;74163;50.912;6.918;2024-01-06T00:24:19;7.50;99.90
30459;DHT22;74163;50.912;6.918;2024-01-06T00:24:51;7.50;99.90
30459;DHT22;74163;50.912;6.918;2024-01-06T00:25:23;7.50;99.90
30459;DHT22;74163;50.912;6.918;2024-01-06T00:25:56;7.50;99.90
30459;DHT22;74163;50.912;6.918;2024-01-06T00:26:28;7.50;99.90
30459;DHT22;74163;50.912;6.918;2024-01-06T00:26:59;7.50;99.90
30459;DHT22;74163;50.912;6.918;2024-01-06T00:27:31;7.50;99.90
30459;DHT22;74163;50.912;6.918;2024-01-06T00:28:04;7.60;99.90
30459;DHT22;74163;50.912;6.918;2024-01-06T00:28:36;7.50;99.90
30459;DHT22;74163;50.912;6.918;2024-01-06T00:29:08;7.60;99.90
30459;DHT22;74163;50.912;6.918;2024-01-06T00:29:41;7.60;99.90
30459;DHT22;74163;50.912;6.918;2024-01-06T00:30:13;7.60;99.90
30459;DHT22;74163;50.912;6.918;2024-01-06T00:30:45;7.60;99.90
30459;DHT22;74163;50.912;6.918;2024-01-06T00:31:17;7.60;99.90
30459;DHT22;74163;50.912;6.918;2024-01-06T00:31:49;7.60;99.90
30459;DHT22;74163;50.912;6.918;2024-01-06T00:32:21;7.60;99.90
30459;DHT22;74163;50.912;6.918;2024-01-06T00:32:53;7.60;99.90
30459;DHT22;74163;50.912;6.918;2024-01-06T00:33:25;7.60;99.90
30459;DHT22;74163;50.912;6.918;2024-01-06T00:33:57;7.50;99.90
30459;DHT22;74163;50.912;6.918;2024-01-06T00:34:29;7.50;99.90
30459;DHT22;74163;50.912;6.918;2024-01-06T00:35:04;7.60;99.90
30459;DHT22;74163;50.912;6.918;2024-01-06T00:35:36;7.50;99.90
30459;DHT22;74163;50.912;6.918;2024-01-06T00:36:08;7.50;99.90
30459;DHT22;74163;50.912;6.918;2024-01-06T00:36:40;7.60;99.90
30459;DHT22;74163;50.912;6.918;2024-01-06T00:37:12;7.50;99.90
30459;DHT22;74163;50.912;6.918;2024-01-06T00:37:44;7.50;99.90
30459;DHT22;74163;50.912;6.918;2024-01-06T00:38:16;7.50;99.90
30459;DHT22;74163;50.912;6.918;2024-01-06T00:38:48;7.50;99.90
30459;DHT22;74163;50.912;6.918;2024-01-06T00:39:20;7.50;99.90
30459;DHT22;74163;50.912;6.918;2024-01-06T00:39:52;7.50;99.90
30459;DHT22;74163;50.912;6.918;2024-01-06T00:40:24;7.40;99.90
30459;DHT22;74163;50.912;6.918;2024-01-06T00:40:56;7.40;99.90
30459;DHT22;74163;50.912;6.918;2024-01-06T00:41:28;7.40;99.90
30459;DHT22;74163;50.912;6.918;2024-01-06T00:42:00;7.40;99.90
30459;DHT22;74163;50.912;6.918;2024-01-06T00:42:31;7.40;99.90
30459;DHT22;74163;50.912;6.918;2024-01-06T00:43:04;7.40;99.90
30459;DHT22;74163;50.912;6.918;2024-01-06T00:43:35;7.30;99.90
30459;DHT22;74163;50.912;6.918;2024-01-06T00:44:08;7.30;99.90
30459;DHT22;74163;50.912;6.918;2024-01-06T00:44:41;7.30;99.90
30459;DHT22;74163;50.912;6.918;2024-01-06T00:45:13;7.30;99.90
30459;DHT22;74163;50.912;6.918;2024-01-06T00:45:45;7.30;99.90
30459;DHT22;74163;50.912;6.918;2024-01-06T00:46:17;7.30;99.90
30459;DHT22;74163;50.912;6.918;2024-01-06T00:46:49;7.30;99.90
30459;DHT22;74163;50.912;6.918;2024-01-06T00:47:21;7.30;99.90
30459;DHT22;74163;50.912;6.918;2024-01-06T00:47:53;7.20;99.90
30459;DHT22;74163;50.912;6.918;2024-01-06T00:48:25;7.20;99.90
30459;DHT22;74163;50.912;6.918;2024-01-06T00:48:57;7.20;99.90
30459;DHT22;74163;50.912;6.918;2024-01-06T00:49:29;7.20;99.90
30459;DHT22;74163;50.912;6.918;2024-01-06T00:50:01;7.20;99.90
30459;DHT22;74163;50.912;6.918;2024-01-06T00:50:33;7.20;99.90
30459;DHT22;74163;50.912;6.918;2024-01-06T00:51:05;7.20;99.90
30459;DHT22;74163;50.912;6.918;2024-01-06T00:51:38;7.10;99.90
30459;DHT22;74163;50.912;6.918;2024-01-06T00:52:11;7.10;99.90
30459;DHT22;74163;50.912;6.918;2024-01-06T00:52:43;7.10;99.90
30459;DHT22;74163;50.912;6.918;2024-01-06T00:53:14;7.10;99.90
30459;DHT22;74163;50.912;6.918;2024-01-06T00:53:46;7.10;99.90
30459;DHT22;74163;50.912;6.918;2024-01-06T00:54:18;7.10;99.90
30459;DHT22;74163;50.912;6.918;2024-01-06T00:54:50;7.10;99.90
30459;DHT22;74163;50.912;6.918;2024-01-06T00:55:22;7.10;99.90
30459;DHT22;74163;50.912;6.918;2024-01-06T00:55:54;7.10;99.90
30459;DHT22;74163;50.912;6.918;2024-01-06T00:56:26;7.10;99.90
30459;DHT22;74163;50.912;6.918;2024-01-06T00:56:57;7.20;99.90
30459;DHT22;74163;50.912;6.918;2024-01-06T00:57:29;7.10;99.90
30459;DHT22;74163;50.912;6.918;2024-01-06T00:58:01;7.10;99.90
30459;DHT22;74163;50.912;6.918;2024-01-06T00:58:34;7.20;99.90
30459;DHT22;74163;50.912;6.918;2024-01-06T00:59:05;7.10;99.90
30459;DHT22;74163;50.912;6.918;2024-01-06T00:59:37;7.10;99.90
30459;DHT22;74163;50.912;6.918;2024-01-06T01:00:14;7.10;99.90
30459;DHT22;74163;50.912;6.918;2024-01-06T01:00:46;7.10;99.90
30459;DHT22;74163;50.912;6.918;2024-01-06T01:01:18;7.10;99.90
30459;DHT22;74163;50.912;6.918;2024-01-06T01:01:50;7.10;99.90
30459;DHT22;74163;50.912;6.918;2024-01-06T01:02:22;7.10;99.90
30459;DHT22;74163;50.912;6.918;2024-01-06T01:02:54;7.10;99.90
30459;DHT22;74163;50.912;6.918;2024-01-06T01:03:25;7.00;99.90
30459;DHT22;74163;50.912;6.918;2024-01-06T01:03:57;7.10;99.90
30459;DHT22;74163;50.912;6.918;2024-01-06T01:04:29;7.10;99.90
30459;DHT22;74163;50.912;6.918;2024-01-06T01:05:01;7.10;99.90
30459;DHT22;74163;50.912;6.918;2024-01-06T01:05:33;7.10;99.90
30459;DHT22;74163;50.912;6.918;2024-01-06T01:06:05;7.10;99.90
30459;DHT22;74163;50.912;6.918;2024-01-06T01:06:37;7.10;99.90
30459;DHT22;74163;50.912;6.918;2024-01-06T01:07:09;7.10;99.90
30459;DHT22;74163;50.912;6.918;2024-01-06T01:07:41;7.10;99.90
30459;DHT22;74163;50.912;6.918;2024-01-06T01:08:13;7.00;99.90
30459;DHT22;74163;50.912;6.918;2024-01-06T01:08:45;7.10;99.90
30459;DHT22;74163;50.912;6.918;2024-01-06T01:09:16;7.10;99.90
30459;DHT22;74163;50.912;6.918;2024-01-06T01:09:48;7.10;99.90
30459;DHT22;74163;50.912;6.918;2024-01-06T01:10:20;7.10;99.90
30459;DHT22;74163;50.912;6.918;2024-01-06T01:10:52;7.00;99.90
30459;DHT22;74163;50.912;6.918;2024-01-06T01:11:24;7.10;99.90
30459;DHT22;74163;50.912;6.918;2024-01-06T01:11:56;7.00;99.90
30459;DHT22;74163;50.912;6.918;2024-01-06T01:12:28;7.00;99.90
30459;DHT22;74163;50.912;6.918;2024-01-06T01:13:00;7.00;99.90
30459;DHT22;74163;50.912;6.918;2024-01-06T01:13:31;7.00;99.90
30459;DHT22;74163;50.912;6.918;2024-01-06T01:14:03;7.00;99.90
30459;DHT22;74163;50.912;6.918;2024-01-06T01:14:35;7.00;99.90
30459;DHT22;74163;50.912;6.918;2024-01-06T01:15:08;7.00;99.90
30459;DHT22;74163;50.912;6.918;2024-01-06T01:15:41;7.00;99.90
30459;DHT22;74163;50.912;6.918;2024-01-06T01:16:13;7.00;99.90
30459;DHT22;74163;50.912;6.918;2024-01-06T01:16:45;7.00;99.90
30459;DHT22;74163;50.912;6.918;2024-01-06T01:17:17;7.00;99.90
30459;DHT22;74163;50.912;6.918;2024-01-06T01:17:49;7.00;99.90
30459;DHT22;74163;50.912;6.918;2024-01-06T01:18:20;7.00;99.90
30459;DHT22;74163;50.912;6.918;2024-01-06T01:18:53;7.00;99.90
30459;DHT22;74163;50.912;6.918;2024-01-06T01:19:25;7.00;99.90
30459;DHT22;74163;50.912;6.918;2024-01-06T01:19:57;7.00;99.90
30459;DHT22;74163;50.912;6.918;2024-01-06T01:20:29;6.90;99.90
30459;DHT22;74163;50.912;6.918;2024-01-06T01:21:01;7.00;99.90
30459;DHT22;74163;50.912;6.918;2024-01-06T01:21:33;7.00;99.90
30459;DHT22;74163;50.912;6.918;2024-01-06T01:22:05;6.90;99.90
30459;DHT22;74163;50.912;6.918;2024-01-06T01:22:37;7.00;99.90
30459;DHT22;74163;50.912;6.918;2024-01-06T01:23:09;6.90;99.90
30459;DHT22;74163;50.912;6.918;2024-01-06T01:23:40;6.90;99.90
30459;DHT22;74163;50.912;6.918;2024-01-06T01:24:12;6.90;99.90
30459;DHT22;74163;50.912;6.918;2024-01-06T01:24:44;6.90;99.90
30459;DHT22;74163;50.912;6.918;2024-01-06T01:25:16;6.90;99.90
30459;DHT22;74163;50.912;6.918;2024-01-06T01:25:48;6.90;99.90
30459;DHT22;74163;50.912;6.918;2024-01-06T01:26:20;6.90;99.90
30459;DHT22;74163;50.912;6.918;2024-01-06T01:26:52;6.90;99.90
30459;DHT22;74163;50.912;6.918;2024-01-06T01:27:24;6.90;99.90
30459;DHT22;74163;50.912;6.918;2024-01-06T01:27:56;6.90;99.90
30459;DHT22;74163;50.912;6.918;2024-01-06T01:28:28;7.00;99.90
30459;DHT22;74163;50.912;6.918;2024-01-06T01:29:00;7.00;99.90
30459;DHT22;74163;50.912;6.918;2024-01-06T01:29:31;7.00;99.90
30459;DHT22;74163;50.912;6.918;2024-01-06T01:30:04;6.90;99.90
30459;DHT22;74163;50.912;6.918;2024-01-06T01:30:36;7.00;99.90
30459;DHT22;74163;50.912;6.918;2024-01-06T01:31:09;7.00;99.90
30459;DHT22;74163;50.912;6.918;2024-01-06T01:31:42;6.90;99.90
30459;DHT22;74163;50.912;6.918;2024-01-06T01:32:14;6.90;99.90
30459;DHT22;74163;50.912;6.918;2024-01-06T01:32:46;6.90;99.90
30459;DHT22;74163;50.912;6.918;2024-01-06T01:33:18;7.00;99.90
30459;DHT22;74163;50.912;6.918;2024-01-06T01:33:50;7.00;99.90
30459;DHT22;74163;50.912;6.918;2024-01-06T01:34:22;7.00;99.90
30459;DHT22;74163;50.912;6.918;2024-01-06T01:34:54;7.00;99.90
30459;DHT22;74163;50.912;6.918;2024-01-06T01:35:26;7.00;99.90
30459;DHT22;74163;50.912;6.918;2024-01-06T01:35:58;7.00;99.90
30459;DHT22;74163;50.912;6.918;2024-01-06T01:36:33;7.00;99.90
30459;DHT22;74163;50.912;6.918;2024-01-06T01:37:05;7.00;99.90
30459;DHT22;74163;50.912;6.918;2024-01-06T01:37:37;7.00;99.90
30459;DHT22;74163;50.912;6.918;2024-01-06T01:38:09;7.00;99.90
30459;DHT22;74163;50.912;6.918;2024-01-06T01:38:41;7.00;99.90
30459;DHT22;74163;50.912;6.918;2024-01-06T01:39:13;7.00;99.90
30459;DHT22;74163;50.912;6.918;2024-01-06T01:39:45;7.10;99.90
30459;DHT22;74163;50.912;6.918;2024-01-06T01:40:17;7.10;99.90
30459;DHT22;74163;50.912;6.918;2024-01-06T01:40:48;7.10;99.90
30459;DHT22;74163;50.912;6.918;2024-01-06T01:41:20;7.10;99.90
30459;DHT22;74163;50.912;6.918;2024-01-06T01:41:52;7.10;99.90
30459;DHT22;74163;50.912;6.918;2024-01-06T01:42:24;7.10;99.90
30459;DHT22;74163;50.912;6.918;2024-01-06T01:42:56;7.10;99.90
30459;DHT22;74163;50.912;6.918;2024-01-06T01:43:28;7.10;99.90
30459;DHT22;74163;50.912;6.918;2024-01-06T01:44:00;7.10;99.90
30459;DHT22;74163;50.912;6.918;2024-01-06T01:44:32;7.10;99.90
30459;DHT22;74163;50.912;6.918;2024-01-06T01:45:05;7.10;99.90
30459;DHT22;74163;50.912;6.918;2024-01-06T01:45:37;7.10;99.90
30459;DHT22;74163;50.912;6.918;2024-01-06T01:46:10;7.10;99.90
30459;DHT22;74163;50.912;6.918;2024-01-06T01:46:42;7.00;99.90
30459;DHT22;74163;50.912;6.918;2024-01-06T01:47:14;7.00;99.90
30459;DHT22;74163;50.912;6.918;2024-01-06T01:47:46;7.10;99.90
30459;DHT22;74163;50.912;6.918;2024-01-06T01:48:19;7.00;99.90
30459;DHT22;74163;50.912;6.918;2024-01-06T01:48:51;7.00;99.90
30459;DHT22;74163;50.912;6.918;2024-01-06T01:49:24;7.00;99.90
30459;DHT22;74163;50.912;6.918;2024-01-06T01:49:57;7.00;99.90
30459;DHT22;74163;50.912;6.918;2024-01-06T01:50:29;7.00;99.90
30459;DHT22;74163;50.912;6.918;2024-01-06T01:51:01;7.00;99.90
30459;DHT22;74163;50.912;6.918;2024-01-06T01:51:34;7.00;99.90
30459;DHT22;74163;50.912;6.918;2024-01-06T01:52:07;7.10;99.90
30459;DHT22;74163;50.912;6.918;2024-01-06T01:52:39;7.00;99.90
30459;DHT22;74163;50.912;6.918;2024-01-06T01:53:12;7.00;99.90
30459;DHT22;74163;50.912;6.918;2024-01-06T01:53:44;7.00;99.90
30459;DHT22;74163;50.912;6.918;2024-01-06T01:54:16;7.00;99.90
30459;DHT22;74163;50.912;6.918;2024-01-06T01:54:48;7.00;99.90
30459;DHT22;74163;50.912;6.918;2024-01-06T01:55:20;7.00;99.90
30459;DHT22;74163;50.912;6.918;2024-01-06T01:55:53;7.00;99.90
30459;DHT22;74163;50.912;6.918;2024-01-06T01:56:26;7.00;99.90
30459;DHT22;74163;50.912;6.918;2024-01-06T01:56:58;7.00;99.90
30459;DHT22;74163;50.912;6.918;2024-01-06T01:57:30;7.00;99.90
30459;DHT22;74163;50.912;6.918;2024-01-06T01:58:03;7.00;99.90
30459;DHT22;74163;50.912;6.918;2024-01-06T01:58:35;7.00;99.90
30459;DHT22;74163;50.912;6.918;2024-01-06T01:59:10;7.00;99.90
30459;DHT22;74163;50.912;6.918;2024-01-06T01:59:42;7.00;99.90
30459;DHT22;74163;50.912;6.918;2024-01-06T02:00:15;7.00;99.90
30459;DHT22;74163;50.912;6.918;2024-01-06T02:00:47;7.00;99.90
30459;DHT22;74163;50.912;6.918;2024-01-06T02:01:20;7.00;99.90
30459;DHT22;74163;50.912;6.918;2024-01-06T02:01:53;6.90;99.90
30459;DHT22;74163;50.912;6.918;2024-01-06T02:02:25;7.00;99.90
30459;DHT22;74163;50.912;6.918;2024-01-06T02:02:59;7.00;99.90
30459;DHT22;74163;50.912;6.918;2024-01-06T02:03:31;7.00;99.90
30459;DHT22;74163;50.912;6.918;2024-01-06T02:04:03;6.90;99.90
30459;DHT22;74163;50.912;6.918;2024-01-06T02:04:35;6.90;99.90
30459;DHT22;74163;50.912;6.918;2024-01-06T02:05:08;6.90;99.90
30459;DHT22;74163;50.912;6.918;2024-01-06T02:05:40;6.90;99.90
30459;DHT22;74163;50.912;6.918;2024-01-06T02:06:13;6.90;99.90
30459;DHT22;74163;50.912;6.918;2024-01-06T02:06:45;7.00;99.90
30459;DHT22;74163;50.912;6.918;2024-01-06T02:07:17;6.90;99.90
30459;DHT22;74163;50.912;6.918;2024-01-06T02:07:49;6.90;99.90
30459;DHT22;74163;50.912;6.918;2024-01-06T02:08:21;6.90;99.90
30459;DHT22;74163;50.912;6.918;2024-01-06T02:08:53;6.90;99.90
30459;DHT22;74163;50.912;6.918;2024-01-06T02:09:26;6.90;99.90
30459;DHT22;74163;50.912;6.918;2024-01-06T02:09:58;6.90;99.90
30459;DHT22;74163;50.912;6.918;2024-01-06T02:10:30;6.90;99.90
30459;DHT22;74163;50.912;6.918;2024-01-06T02:11:02;6.90;99.90
30459;DHT22;74163;50.912;6.918;2024-01-06T02:11:34;6.90;99.90
30459;DHT22;74163;50.912;6.918;2024-01-06T02:12:07;6.90;99.90
30459;DHT22;74163;50.912;6.918;2024-01-06T02:12:39;6.90;99.90
30459;DHT22;74163;50.912;6.918;2024-01-06T02:13:11;6.90;99.90
30459;DHT22;74163;50.912;6.918;2024-01-06T02:13:43;6.90;99.90
30459;DHT22;74163;50.912;6.918;2024-01-06T02:14:15;6.90;99.90
30459;DHT22;74163;50.912;6.918;2024-01-06T02:14:47;6.90;99.90
30459;DHT22;74163;50.912;6.918;2024-01-06T02:15:19;6.90;99.90
30459;DHT22;74163;50.912;6.918;2024-01-06T02:15:51;6.90;99.90
30459;DHT22;74163;50.912;6.918;2024-01-06T02:16:25;6.90;99.90
30459;DHT22;74163;50.912;6.918;2024-01-06T02:16:57;6.90;99.90
30459;DHT22;74163;50.912;6.918;2024-01-06T02:17:29;6.90;99.90
30459;DHT22;74163;50.912;6.918;2024-01-06T02:18:01;6.90;99.90
30459;DHT22;74163;50.912;6.918;2024-01-06T02:18:33;6.90;99.90
30459;DHT22;74163;50.912;6.918;2024-01-06T02:19:08;6.90;99.90
30459;DHT22;74163;50.912;6.918;2024-01-06T02:19:42;6.90;99.90
30459;DHT22;74163;50.912;6.918;2024-01-06T02:20:14;6.90;99.90
30459;DHT22;74163;50.912;6.918;2024-01-06T02:20:49;6.90;99.90
30459;DHT22;74163;50.912;6.918;2024-01-06T02:21:21;6.90;99.90
30459;DHT22;74163;50.912;6.918;2024-01-06T02:21:55;6.90;99.90
30459;DHT22;74163;50.912;6.918;2024-01-06T02:22:27;6.90;99.90
30459;DHT22;74163;50.912;6.918;2024-01-06T02:22:59;6.90;99.90
30459;DHT22;74163;50.912;6.918;2024-01-06T02:23:31;6.90;99.90
30459;DHT22;74163;50.912;6.918;2024-01-06T02:24:03;6.90;99.90
30459;DHT22;74163;50.912;6.918;2024-01-06T02:24:35;6.90;99.90
30459;DHT22;74163;50.912;6.918;2024-01-06T02:25:07;6.90;99.90
30459;DHT22;74163;50.912;6.918;2024-01-06T02:25:39;6.90;99.90
30459;DHT22;74163;50.912;6.918;2024-01-06T02:26:11;6.90;99.90
30459;DHT22;74163;50.912;6.918;2024-01-06T02:26:43;6.90;99.90
30459;DHT22;74163;50.912;6.918;2024-01-06T02:27:15;6.90;99.90
30459;DHT22;74163;50.912;6.918;2024-01-06T02:27:46;6.90;99.90
30459;DHT22;74163;50.912;6.918;2024-01-06T02:28:18;6.90;99.90
30459;DHT22;74163;50.912;6.918;2024-01-06T02:28:50;6.90;99.90
30459;DHT22;74163;50.912;6.918;2024-01-06T02:29:22;6.90;99.90
30459;DHT22;74163;50.912;6.918;2024-01-06T02:29:54;6.90;99.90
30459;DHT22;74163;50.912;6.918;2024-01-06T02:30:26;6.90;99.90
30459;DHT22;74163;50.912;6.918;2024-01-06T02:30:58;6.90;99.90
30459;DHT22;74163;50.912;6.918;2024-01-06T02:31:30;6.90;99.90
30459;DHT22;74163;50.912;6.918;2024-01-06T02:32:02;6.90;99.90
30459;DHT22;74163;50.912;6.918;2024-01-06T02:32:34;7.00;99.90
30459;DHT22;74163;50.912;6.918;2024-01-06T02:33:06;7.00;99.90
30459;DHT22;74163;50.912;6.918;2024-01-06T02:33:38;6.90;99.90
30459;DHT22;74163;50.912;6.918;2024-01-06T02:34:10;6.90;99.90
30459;DHT22;74163;50.912;6.918;2024-01-06T02:34:42;6.90;99.90
30459;DHT22;74163;50.912;6.918;2024-01-06T02:35:14;7.00;99.90
30459;DHT22;74163;50.912;6.918;2024-01-06T02:35:46;7.00;99.90
30459;DHT22;74163;50.912;6.918;2024-01-06T02:36:18;7.00;99.90
30459;DHT22;74163;50.912;6.918;2024-01-06T02:36:50;7.00;99.90
30459;DHT22;74163;50.912;6.918;2024-01-06T02:37:23;7.00;99.90
30459;DHT22;74163;50.912;6.918;2024-01-06T02:37:55;7.00;99.90
30459;DHT22;74163;50.912;6.918;2024-01-06T02:38:27;7.10;99.90
30459;DHT22;74163;50.912;6.918;2024-01-06T02:38:59;7.00;99.90
30459;DHT22;74163;50.912;6.918;2024-01-06T02:39:31;7.00;99.90
30459;DHT22;74163;50.912;6.918;2024-01-06T02:40:03;7.00;99.90
30459;DHT22;74163;50.912;6.918;2024-01-06T02:40:35;7.00;99.90
30459;DHT22;74163;50.912;6.918;2024-01-06T02:41:07;7.00;99.90
30459;DHT22;74163;50.912;6.918;2024-01-06T02:41:39;7.10;99.90
30459;DHT22;74163;50.912;6.918;2024-01-06T02:42:11;7.10;99.90
30459;DHT22;74163;50.912;6.918;2024-01-06T02:42:43;7.10;99.90
30459;DHT22;74163;50.912;6.918;2024-01-06T02:43:15;7.10;99.90
30459;DHT22;74163;50.912;6.918;2024-01-06T02:43:46;7.10;99.90
30459;DHT22;74163;50.912;6.918;2024-01-06T02:44:18;7.10;99.90
30459;DHT22;74163;50.912;6.918;2024-01-06T02:44:50;7.10;99.90
30459;DHT22;74163;50.912;6.918;2024-01-06T02:45:22;7.10;99.90
30459;DHT22;74163;50.912;6.918;2024-01-06T02:45:54;7.10;99.90
30459;DHT22;74163;50.912;6.918;2024-01-06T02:46:26;7.00;99.90
30459;DHT22;74163;50.912;6.918;2024-01-06T02:46:58;7.00;99.90
30459;DHT22;74163;50.912;6.918;2024-01-06T02:47:29;7.00;99.90
30459;DHT22;74163;50.912;6.918;2024-01-06T02:48:01;7.00;99.90
30459;DHT22;74163;50.912;6.918;2024-01-06T02:48:34;7.00;99.90
30459;DHT22;74163;50.912;6.918;2024-01-06T02:49:06;7.00;99.90
30459;DHT22;74163;50.912;6.918;2024-01-06T02:49:39;7.00;99.90
30459;DHT22;74163;50.912;6.918;2024-01-06T02:50:11;7.00;99.90
30459;DHT22;74163;50.912;6.918;2024-01-06T02:50:43;7.00;99.90
30459;DHT22;74163;50.912;6.918;2024-01-06T02:51:15;6.90;99.90
30459;DHT22;74163;50.912;6.918;2024-01-06T02:51:47;6.90;99.90
30459;DHT22;74163;50.912;6.918;2024-01-06T02:52:19;6.90;99.90
30459;DHT22;74163;50.912;6.918;2024-01-06T02:52:53;6.90;99.90
30459;DHT22;74163;50.912;6.918;2024-01-06T02:53:26;6.90;99.90
30459;DHT22;74163;50.912;6.918;2024-01-06T02:53:58;6.90;99.90
30459;DHT22;74163;50.912;6.918;2024-01-06T02:54:30;6.90;99.90
30459;DHT22;74163;50.912;6.918;2024-01-06T02:55:02;6.90;99.90
30459;DHT22;74163;50.912;6.918;2024-01-06T02:55:34;6.90;99.90
30459;DHT22;74163;50.912;6.918;2024-01-06T02:56:10;7.00;99.90
30459;DHT22;74163;50.912;6.918;2024-01-06T02:56:41;6.90;99.90
30459;DHT22;74163;50.912;6.918;2024-01-06T02:57:14;6.90;99.90
30459;DHT22;74163;50.912;6.918;2024-01-06T02:57:46;6.90;99.90
30459;DHT22;74163;50.912;6.918;2024-01-06T02:58:17;6.90;99.90
30459;DHT22;74163;50.912;6.918;2024-01-06T02:58:49;6.90;99.90
30459;DHT22;74163;50.912;6.918;2024-01-06T02:59:21;6.90;99.90
30459;DHT22;74163;50.912;6.918;2024-01-06T02:59:53;7.00;99.90
30459;DHT22;74163;50.912;6.918;2024-01-06T03:00:25;7.00;99.90
30459;DHT22;74163;50.912;6.918;2024-01-06T03:00:57;6.90;99.90
30459;DHT22;74163;50.912;6.918;2024-01-06T03:01:31;6.90;99.90
30459;DHT22;74163;50.912;6.918;2024-01-06T03:02:03;7.00;99.90
30459;DHT22;74163;50.912;6.918;2024-01-06T03:02:35;7.00;99.90
30459;DHT22;74163;50.912;6.918;2024-01-06T03:03:07;7.00;99.90
30459;DHT22;74163;50.912;6.918;2024-01-06T03:03:39;7.00;99.90
30459;DHT22;74163;50.912;6.918;2024-01-06T03:04:10;7.00;99.90
30459;DHT22;74163;50.912;6.918;2024-01-06T03:04:43;7.00;99.90
30459;DHT22;74163;50.912;6.918;2024-01-06T03:05:15;7.00;99.90
30459;DHT22;74163;50.912;6.918;2024-01-06T03:05:46;7.00;99.90
30459;DHT22;74163;50.912;6.918;2024-01-06T03:06:18;7.00;99.90
30459;DHT22;74163;50.912;6.918;2024-01-06T03:06:50;7.00;99.90
30459;DHT22;74163;50.912;6.918;2024-01-06T03:07:22;7.00;99.90
30459;DHT22;74163;50.912;6.918;2024-01-06T03:07:55;6.90;99.90
30459;DHT22;74163;50.912;6.918;2024-01-06T03:08:27;6.90;99.90
30459;DHT22;74163;50.912;6.918;2024-01-06T03:08:59;6.90;99.90
30459;DHT22;74163;50.912;6.918;2024-01-06T03:09:31;6.90;99.90
30459;DHT22;74163;50.912;6.918;2024-01-06T03:10:03;6.90;99.90
30459;DHT22;74163;50.912;6.918;2024-01-06T03:10:35;6.90;99.90
30459;DHT22;74163;50.912;6.918;2024-01-06T03:11:07;7.00;99.90
30459;DHT22;74163;50.912;6.918;2024-01-06T03:11:39;6.90;99.90
30459;DHT22;74163;50.912;6.918;2024-01-06T03:12:11;7.00;99.90
30459;DHT22;74163;50.912;6.918;2024-01-06T03:12:43;6.90;99.90
30459;DHT22;74163;50.912;6.918;2024-01-06T03:13:15;6.90;99.90
30459;DHT22;74163;50.912;6.918;2024-01-06T03:13:46;6.90;99.90
30459;DHT22;74163;50.912;6.918;2024-01-06T03:14:18;7.00;99.90
30459;DHT22;74163;50.912;6.918;2024-01-06T03:14:50;6.90;99.90
30459;DHT22;74163;50.912;6.918;2024-01-06T03:15:22;7.00;99.90
30459;DHT22;74163;50.912;6.918;2024-01-06T03:15:54;6.90;99.90
30459;DHT22;74163;50.912;6.918;2024-01-06T03:16:26;6.90;99.90
30459;DHT22;74163;50.912;6.918;2024-01-06T03:16:58;7.00;99.90
30459;DHT22;74163;50.912;6.918;2024-01-06T03:17:30;7.00;99.90
30459;DHT22;74163;50.912;6.918;2024-01-06T03:18:02;7.00;99.90
30459;DHT22;74163;50.912;6.918;2024-01-06T03:18:34;7.00;99.90
30459;DHT22;74163;50.912;6.918;2024-01-06T03:19:06;7.00;99.90
30459;DHT22;74163;50.912;6.918;2024-01-06T03:19:38;7.00;99.90
30459;DHT22;74163;50.912;6.918;2024-01-06T03:20:11;7.00;99.90
30459;DHT22;74163;50.912;6.918;2024-01-06T03:20:42;7.00;99.90
30459;DHT22;74163;50.912;6.918;2024-01-06T03:21:18;7.00;99.90
30459;DHT22;74163;50.912;6.918;2024-01-06T03:21:50;7.00;99.90
30459;DHT22;74163;50.912;6.918;2024-01-06T03:22:22;7.00;99.90
30459;DHT22;74163;50.912;6.918;2024-01-06T03:22:53;7.00;99.90
30459;DHT22;74163;50.912;6.918;2024-01-06T03:23:26;7.10;99.90
30459;DHT22;74163;50.912;6.918;2024-01-06T03:23:58;7.00;99.90
30459;DHT22;74163;50.912;6.918;2024-01-06T03:24:30;7.10;99.90
30459;DHT22;74163;50.912;6.918;2024-01-06T03:25:03;7.10;99.90
30459;DHT22;74163;50.912;6.918;2024-01-06T03:25:34;7.10;99.90
30459;DHT22;74163;50.912;6.918;2024-01-06T03:26:06;7.10;99.90